N129TN LEGE-LESU
Flight info
| Callsign | N129TN |
|---|---|
| Flight time | N/A |
| Altitude | 13000 |
| Route | MAMUK L110 LATRO |
| Aircraft | BE58/L-SDFGRY/C |
Departure
| Time | 2026-04-30 14:58 |
|---|---|
| Airport | Girona-Costa Brava Airport (LEGE) |
Arrival
| Time | N/A |
|---|---|
| Airport | Pirineus - la Seu d'Urgel Airport (LESU) |
| Time | Latitude | Longitude | Altitude | Speed | Heading |
|---|---|---|---|---|---|
| 2026-04-30 13:23 | 41.90227 | 2.76425 | 429 ft | 0 kts | 196° |
| 2026-04-30 14:45 | 41.90226 | 2.76425 | 430 ft | 0 kts | 196° |
| 2026-04-30 14:45 | 41.90223 | 2.76424 | 430 ft | 1 kts | 196° |
| 2026-04-30 14:45 | 41.90221 | 2.76423 | 429 ft | 2 kts | 196° |
| 2026-04-30 14:48 | 41.90211 | 2.76418 | 429 ft | 3 kts | 204° |
| 2026-04-30 14:48 | 41.90197 | 2.76408 | 429 ft | 4 kts | 209° |
| 2026-04-30 14:49 | 41.90178 | 2.76378 | 429 ft | 6 kts | 269° |
| 2026-04-30 14:49 | 41.90190 | 2.76330 | 429 ft | 5 kts | 313° |
| 2026-04-30 14:49 | 41.90203 | 2.76324 | 429 ft | 4 kts | 16° |
| 2026-04-30 14:50 | 41.90377 | 2.76392 | 433 ft | 20 kts | 15° |
| 2026-04-30 14:50 | 41.90531 | 2.76450 | 439 ft | 25 kts | 14° |
| 2026-04-30 14:51 | 41.90890 | 2.76600 | 455 ft | 29 kts | 22° |
| 2026-04-30 14:51 | 41.91072 | 2.76670 | 457 ft | 24 kts | 15° |
| 2026-04-30 14:51 | 41.91345 | 2.76769 | 453 ft | 16 kts | 14° |
| 2026-04-30 14:52 | 41.91372 | 2.76774 | 453 ft | 16 kts | 357° |
| 2026-04-30 14:55 | 41.91431 | 2.76741 | 454 ft | 11 kts | 331° |
| 2026-04-30 14:55 | 41.91482 | 2.76698 | 456 ft | 8 kts | 333° |
| 2026-04-30 14:56 | 41.91500 | 2.76592 | 462 ft | 6 kts | 207° |
| 2026-04-30 14:56 | 41.91185 | 2.76466 | 465 ft | 86 kts | 195° |
| 2026-04-30 14:57 | 41.90449 | 2.76184 | 553 ft | 119 kts | 193° |
| 2026-04-30 14:57 | 41.88735 | 2.75658 | 877 ft | 138 kts | 187° |
| 2026-04-30 14:58 | 41.86937 | 2.75563 | 1278 ft | 142 kts | 182° |
| 2026-04-30 14:58 | 41.85898 | 2.75425 | 1053 ft | 162 kts | 199° |
| 2026-04-30 14:58 | 41.84217 | 2.73580 | 1366 ft | 141 kts | 211° |
| 2026-04-30 14:59 | 41.82573 | 2.72435 | 2025 ft | 123 kts | 200° |
| 2026-04-30 15:00 | 41.80187 | 2.71230 | 3439 ft | 115 kts | 196° |
| 2026-04-30 15:00 | 41.78419 | 2.70409 | 3765 ft | 156 kts | 197° |
| 2026-04-30 15:01 | 41.76279 | 2.69416 | 4176 ft | 167 kts | 198° |
| 2026-04-30 15:01 | 41.75532 | 2.69071 | 4332 ft | 168 kts | 198° |
| 2026-04-30 15:01 | 41.72946 | 2.67881 | 4875 ft | 168 kts | 198° |
| 2026-04-30 15:02 | 41.71839 | 2.67371 | 5105 ft | 168 kts | 198° |
| 2026-04-30 15:02 | 41.70747 | 2.66870 | 5333 ft | 168 kts | 198° |
| 2026-04-30 15:03 | 41.67457 | 2.65322 | 6015 ft | 166 kts | 205° |
| 2026-04-30 15:03 | 41.65794 | 2.63235 | 6450 ft | 166 kts | 241° |
| 2026-04-30 15:04 | 41.65591 | 2.60180 | 6873 ft | 169 kts | 279° |
| 2026-04-30 15:04 | 41.66796 | 2.55772 | 7494 ft | 168 kts | 292° |
| 2026-04-30 15:05 | 41.68264 | 2.51532 | 8094 ft | 167 kts | 292° |
| 2026-04-30 15:06 | 41.69251 | 2.48711 | 8487 ft | 166 kts | 293° |
| 2026-04-30 15:06 | 41.70228 | 2.45919 | 8877 ft | 165 kts | 293° |
| 2026-04-30 15:07 | 41.71194 | 2.43155 | 9246 ft | 164 kts | 293° |
| 2026-04-30 15:07 | 41.72163 | 2.40382 | 9603 ft | 164 kts | 293° |
| 2026-04-30 15:08 | 41.73125 | 2.37626 | 9951 ft | 164 kts | 293° |
| 2026-04-30 15:08 | 41.74571 | 2.33475 | 10442 ft | 164 kts | 292° |
| 2026-04-30 15:09 | 41.75182 | 2.30517 | 10412 ft | 174 kts | 297° |
| 2026-04-30 15:09 | 41.76447 | 2.27856 | 10803 ft | 166 kts | 295° |
| 2026-04-30 15:10 | 41.77461 | 2.25131 | 11141 ft | 162 kts | 292° |
| 2026-04-30 15:11 | 41.79368 | 2.19667 | 11769 ft | 161 kts | 292° |
| 2026-04-30 15:11 | 41.80306 | 2.16960 | 12077 ft | 161 kts | 292° |
| 2026-04-30 15:12 | 41.81719 | 2.12876 | 12505 ft | 161 kts | 291° |
| 2026-04-30 15:13 | 41.82650 | 2.10180 | 12796 ft | 160 kts | 291° |
| 2026-04-30 15:14 | 41.83278 | 2.04601 | 13330 ft | 154 kts | 258° |
| 2026-04-30 15:14 | 41.82698 | 2.00391 | 13735 ft | 152 kts | 259° |
| 2026-04-30 15:16 | 41.81709 | 1.93402 | 14326 ft | 153 kts | 259° |
| 2026-04-30 15:17 | 41.80910 | 1.87791 | 15371 ft | 97 kts | 258° |
| 2026-04-30 15:18 | 41.79966 | 1.84587 | 14858 ft | 124 kts | 232° |
| 2026-04-30 15:19 | 41.77075 | 1.83978 | 13192 ft | 221 kts | 223° |